sensor_id;sensor_type;location;lat;lon;timestamp;pressure;altitude;pressure_sealevel;temperature;humidity
65872;BME280;52653;50.080;21.992;2023-03-18T00:02:56;99665.82;;;-0.63;73.56
65872;BME280;52653;50.080;21.992;2023-03-18T00:05:31;99658.98;;;-0.61;73.80
65872;BME280;52653;50.080;21.992;2023-03-18T00:08:05;99659.31;;;-0.57;73.34
65872;BME280;52653;50.080;21.992;2023-03-18T00:10:39;99653.84;;;-0.56;73.14
65872;BME280;52653;50.080;21.992;2023-03-18T00:13:12;99655.55;;;-0.56;73.00
65872;BME280;52653;50.080;21.992;2023-03-18T00:15:44;99655.67;;;-0.57;72.99
65872;BME280;52653;50.080;21.992;2023-03-18T00:18:20;99658.77;;;-0.57;72.91
65872;BME280;52653;50.080;21.992;2023-03-18T00:20:56;99658.41;;;-0.58;72.57
65872;BME280;52653;50.080;21.992;2023-03-18T00:23:34;99660.17;;;-0.62;72.46
65872;BME280;52653;50.080;21.992;2023-03-18T00:26:07;99655.41;;;-0.67;72.49
65872;BME280;52653;50.080;21.992;2023-03-18T00:28:43;99656.85;;;-0.74;72.34
65872;BME280;52653;50.080;21.992;2023-03-18T00:31:26;99656.71;;;-0.81;72.41
65872;BME280;52653;50.080;21.992;2023-03-18T00:34:11;99652.23;;;-0.88;72.53
65872;BME280;52653;50.080;21.992;2023-03-18T00:36:45;99649.69;;;-0.96;72.39
65872;BME280;52653;50.080;21.992;2023-03-18T00:39:21;99649.23;;;-1.02;72.82
65872;BME280;52653;50.080;21.992;2023-03-18T00:41:58;99648.70;;;-1.06;72.75
65872;BME280;52653;50.080;21.992;2023-03-18T00:44:35;99652.24;;;-1.07;72.93
65872;BME280;52653;50.080;21.992;2023-03-18T00:47:09;99644.98;;;-1.08;73.10
65872;BME280;52653;50.080;21.992;2023-03-18T00:49:42;99647.58;;;-1.08;72.91
65872;BME280;52653;50.080;21.992;2023-03-18T00:52:18;99645.70;;;-1.07;73.08
65872;BME280;52653;50.080;21.992;2023-03-18T00:54:51;99639.59;;;-1.09;73.69
65872;BME280;52653;50.080;21.992;2023-03-18T00:57:29;99636.27;;;-1.14;74.49
65872;BME280;52653;50.080;21.992;2023-03-18T01:00:02;99633.91;;;-1.21;75.10
65872;BME280;52653;50.080;21.992;2023-03-18T01:02:37;99630.40;;;-1.26;75.09
65872;BME280;52653;50.080;21.992;2023-03-18T01:05:13;99631.33;;;-1.32;74.99
65872;BME280;52653;50.080;21.992;2023-03-18T01:07:47;99629.99;;;-1.39;74.99
65872;BME280;52653;50.080;21.992;2023-03-18T01:10:20;99626.79;;;-1.44;75.10
65872;BME280;52653;50.080;21.992;2023-03-18T01:12:54;99624.35;;;-1.49;75.31
65872;BME280;52653;50.080;21.992;2023-03-18T01:15:28;99624.98;;;-1.51;75.30
65872;BME280;52653;50.080;21.992;2023-03-18T01:18:05;99628.83;;;-1.49;75.35
65872;BME280;52653;50.080;21.992;2023-03-18T01:20:39;99625.17;;;-1.46;75.43
65872;BME280;52653;50.080;21.992;2023-03-18T01:23:12;99625.30;;;-1.43;75.28
65872;BME280;52653;50.080;21.992;2023-03-18T01:25:48;99622.39;;;-1.40;75.63
65872;BME280;52653;50.080;21.992;2023-03-18T01:28:24;99616.95;;;-1.38;75.89
65872;BME280;52653;50.080;21.992;2023-03-18T01:31:02;99613.64;;;-1.39;76.28
65872;BME280;52653;50.080;21.992;2023-03-18T01:33:39;99612.29;;;-1.42;76.48
65872;BME280;52653;50.080;21.992;2023-03-18T01:36:12;99609.23;;;-1.45;76.76
65872;BME280;52653;50.080;21.992;2023-03-18T01:38:47;99604.28;;;-1.48;76.69
65872;BME280;52653;50.080;21.992;2023-03-18T01:41:19;99604.66;;;-1.51;76.62
65872;BME280;52653;50.080;21.992;2023-03-18T01:43:53;99604.15;;;-1.54;76.82
65872;BME280;52653;50.080;21.992;2023-03-18T01:46:33;99602.27;;;-1.58;76.67
65872;BME280;52653;50.080;21.992;2023-03-18T01:49:21;99598.69;;;-1.61;76.70
65872;BME280;52653;50.080;21.992;2023-03-18T01:52:07;99597.74;;;-1.63;76.81
65872;BME280;52653;50.080;21.992;2023-03-18T01:54:45;99595.31;;;-1.63;77.00
65872;BME280;52653;50.080;21.992;2023-03-18T01:57:19;99594.31;;;-1.63;77.21
65872;BME280;52653;50.080;21.992;2023-03-18T01:59:53;99587.35;;;-1.61;77.10
65872;BME280;52653;50.080;21.992;2023-03-18T02:02:30;99582.35;;;-1.57;77.12
65872;BME280;52653;50.080;21.992;2023-03-18T02:05:09;99587.42;;;-1.55;76.94
65872;BME280;52653;50.080;21.992;2023-03-18T02:07:43;99585.17;;;-1.52;77.33
65872;BME280;52653;50.080;21.992;2023-03-18T02:10:22;99585.04;;;-1.47;77.53
65872;BME280;52653;50.080;21.992;2023-03-18T02:13:02;99581.15;;;-1.46;77.74
65872;BME280;52653;50.080;21.992;2023-03-18T02:15:53;99587.48;;;-1.46;77.66
65872;BME280;52653;50.080;21.992;2023-03-18T02:18:31;99587.52;;;-1.50;77.48
65872;BME280;52653;50.080;21.992;2023-03-18T02:21:16;99587.08;;;-1.52;77.36
65872;BME280;52653;50.080;21.992;2023-03-18T02:24:00;99587.02;;;-1.56;77.31
65872;BME280;52653;50.080;21.992;2023-03-18T02:26:59;99588.31;;;-1.62;77.33
65872;BME280;52653;50.080;21.992;2023-03-18T02:29:56;99595.72;;;-1.69;77.41
65872;BME280;52653;50.080;21.992;2023-03-18T02:32:40;99599.70;;;-1.76;77.47
65872;BME280;52653;50.080;21.992;2023-03-18T02:35:29;99595.68;;;-1.81;77.48
65872;BME280;52653;50.080;21.992;2023-03-18T02:38:05;99593.81;;;-1.84;78.03
65872;BME280;52653;50.080;21.992;2023-03-18T02:40:39;99591.34;;;-1.86;78.47
65872;BME280;52653;50.080;21.992;2023-03-18T02:43:24;99590.63;;;-1.86;78.85
65872;BME280;52653;50.080;21.992;2023-03-18T02:46:14;99592.78;;;-1.84;79.01
65872;BME280;52653;50.080;21.992;2023-03-18T02:48:51;99595.30;;;-1.82;78.93
65872;BME280;52653;50.080;21.992;2023-03-18T02:51:27;99596.02;;;-1.77;78.78
65872;BME280;52653;50.080;21.992;2023-03-18T02:54:05;99593.44;;;-1.74;78.88
65872;BME280;52653;50.080;21.992;2023-03-18T02:56:41;99592.89;;;-1.71;78.95
65872;BME280;52653;50.080;21.992;2023-03-18T02:59:17;99595.94;;;-1.68;78.77
65872;BME280;52653;50.080;21.992;2023-03-18T03:01:52;99591.58;;;-1.66;78.76
65872;BME280;52653;50.080;21.992;2023-03-18T03:04:29;99591.36;;;-1.63;78.82
65872;BME280;52653;50.080;21.992;2023-03-18T03:07:02;99590.69;;;-1.63;78.82
65872;BME280;52653;50.080;21.992;2023-03-18T03:09:42;99594.63;;;-1.63;78.75
65872;BME280;52653;50.080;21.992;2023-03-18T03:12:27;99591.38;;;-1.66;78.80
65872;BME280;52653;50.080;21.992;2023-03-18T03:15:06;99596.79;;;-1.68;78.92
65872;BME280;52653;50.080;21.992;2023-03-18T03:17:55;99592.79;;;-1.73;78.88
65872;BME280;52653;50.080;21.992;2023-03-18T03:20:28;99596.91;;;-1.77;79.01
65872;BME280;52653;50.080;21.992;2023-03-18T03:23:09;99599.13;;;-1.81;79.29
65872;BME280;52653;50.080;21.992;2023-03-18T03:25:49;99599.02;;;-1.83;79.43
65872;BME280;52653;50.080;21.992;2023-03-18T03:28:24;99600.89;;;-1.84;79.27
65872;BME280;52653;50.080;21.992;2023-03-18T03:30:57;99600.21;;;-1.83;79.52
65872;BME280;52653;50.080;21.992;2023-03-18T03:33:42;99601.83;;;-1.82;79.05
65872;BME280;52653;50.080;21.992;2023-03-18T03:36:25;99598.41;;;-1.81;79.05
65872;BME280;52653;50.080;21.992;2023-03-18T03:38:59;99599.15;;;-1.80;79.05
65872;BME280;52653;50.080;21.992;2023-03-18T03:41:38;99600.45;;;-1.78;78.92
65872;BME280;52653;50.080;21.992;2023-03-18T03:44:15;99601.87;;;-1.77;78.77
65872;BME280;52653;50.080;21.992;2023-03-18T03:46:51;99596.60;;;-1.76;78.87
65872;BME280;52653;50.080;21.992;2023-03-18T03:49:44;99598.08;;;-1.74;78.57
65872;BME280;52653;50.080;21.992;2023-03-18T03:52:40;99597.50;;;-1.75;78.54
65872;BME280;52653;50.080;21.992;2023-03-18T03:55:16;99595.77;;;-1.79;78.77
65872;BME280;52653;50.080;21.992;2023-03-18T03:57:49;99596.13;;;-1.86;78.91
65872;BME280;52653;50.080;21.992;2023-03-18T04:00:33;99595.02;;;-1.94;79.17
65872;BME280;52653;50.080;21.992;2023-03-18T04:03:09;99596.10;;;-2.01;79.24
65872;BME280;52653;50.080;21.992;2023-03-18T04:05:52;99598.11;;;-2.05;79.50
65872;BME280;52653;50.080;21.992;2023-03-18T04:08:30;99599.73;;;-2.08;79.46
65872;BME280;52653;50.080;21.992;2023-03-18T04:11:03;99603.20;;;-2.10;79.61
65872;BME280;52653;50.080;21.992;2023-03-18T04:13:36;99605.23;;;-2.11;79.86
65872;BME280;52653;50.080;21.992;2023-03-18T04:16:09;99605.29;;;-2.10;80.01
65872;BME280;52653;50.080;21.992;2023-03-18T04:18:57;99608.30;;;-2.08;79.94
65872;BME280;52653;50.080;21.992;2023-03-18T04:21:29;99607.05;;;-2.05;79.96
65872;BME280;52653;50.080;21.992;2023-03-18T04:24:07;99604.73;;;-2.04;79.83
65872;BME280;52653;50.080;21.992;2023-03-18T04:26:43;99603.77;;;-2.02;80.04
65872;BME280;52653;50.080;21.992;2023-03-18T04:29:16;99605.63;;;-1.99;79.87
65872;BME280;52653;50.080;21.992;2023-03-18T04:31:52;99610.73;;;-1.97;79.72
65872;BME280;52653;50.080;21.992;2023-03-18T04:34:27;99611.52;;;-1.95;79.71
65872;BME280;52653;50.080;21.992;2023-03-18T04:37:01;99609.65;;;-1.94;79.86
65872;BME280;52653;50.080;21.992;2023-03-18T04:39:35;99608.39;;;-1.95;79.86
65872;BME280;52653;50.080;21.992;2023-03-18T04:42:21;99608.52;;;-1.97;79.89
65872;BME280;52653;50.080;21.992;2023-03-18T04:44:54;99611.86;;;-1.98;79.88
65872;BME280;52653;50.080;21.992;2023-03-18T04:47:29;99609.70;;;-2.00;80.16
65872;BME280;52653;50.080;21.992;2023-03-18T04:50:16;99606.66;;;-2.03;80.43
65872;BME280;52653;50.080;21.992;2023-03-18T04:52:51;99603.80;;;-2.05;80.00
65872;BME280;52653;50.080;21.992;2023-03-18T04:55:38;99606.90;;;-2.05;80.05
65872;BME280;52653;50.080;21.992;2023-03-18T04:58:14;99611.45;;;-2.03;79.95
65872;BME280;52653;50.080;21.992;2023-03-18T05:00:59;99606.14;;;-1.99;79.74
65872;BME280;52653;50.080;21.992;2023-03-18T05:03:37;99605.77;;;-1.96;79.73
65872;BME280;52653;50.080;21.992;2023-03-18T05:06:19;99607.14;;;-1.93;79.59
65872;BME280;52653;50.080;21.992;2023-03-18T05:09:02;99605.95;;;-1.89;79.67
65872;BME280;52653;50.080;21.992;2023-03-18T05:11:39;99609.65;;;-1.84;79.91
65872;BME280;52653;50.080;21.992;2023-03-18T05:14:21;99611.77;;;-1.79;79.82
65872;BME280;52653;50.080;21.992;2023-03-18T05:17:06;99615.48;;;-1.73;79.63
65872;BME280;52653;50.080;21.992;2023-03-18T05:19:40;99616.80;;;-1.67;79.71
65872;BME280;52653;50.080;21.992;2023-03-18T05:22:32;99618.41;;;-1.58;79.48
65872;BME280;52653;50.080;21.992;2023-03-18T05:25:15;99619.02;;;-1.49;79.55
65872;BME280;52653;50.080;21.992;2023-03-18T05:27:52;99617.70;;;-1.40;79.46
65872;BME280;52653;50.080;21.992;2023-03-18T05:30:40;99617.59;;;-1.31;79.24
65872;BME280;52653;50.080;21.992;2023-03-18T05:33:16;99620.00;;;-1.24;79.17
65872;BME280;52653;50.080;21.992;2023-03-18T05:35:58;99619.59;;;-1.14;78.94
65872;BME280;52653;50.080;21.992;2023-03-18T05:38:36;99622.44;;;-1.04;78.87
65872;BME280;52653;50.080;21.992;2023-03-18T05:41:20;99623.07;;;-0.94;78.85
65872;BME280;52653;50.080;21.992;2023-03-18T05:43:56;99622.41;;;-0.82;78.60
65872;BME280;52653;50.080;21.992;2023-03-18T05:46:30;99619.55;;;-0.69;78.44
65872;BME280;52653;50.080;21.992;2023-03-18T05:49:26;99620.02;;;-0.54;78.04
65872;BME280;52653;50.080;21.992;2023-03-18T05:52:19;99623.02;;;-0.40;77.85
65872;BME280;52653;50.080;21.992;2023-03-18T05:55:14;99616.82;;;-0.27;77.63
65872;BME280;52653;50.080;21.992;2023-03-18T05:58:09;99617.46;;;-0.12;77.12
65872;BME280;52653;50.080;21.992;2023-03-18T06:01:03;99618.88;;;0.02;76.77
65872;BME280;52653;50.080;21.992;2023-03-18T06:03:58;99619.91;;;0.14;76.26
65872;BME280;52653;50.080;21.992;2023-03-18T06:06:32;99618.08;;;0.29;76.26
65872;BME280;52653;50.080;21.992;2023-03-18T06:09:26;99617.86;;;0.45;75.85
65872;BME280;52653;50.080;21.992;2023-03-18T06:12:09;99618.50;;;0.62;75.27
65872;BME280;52653;50.080;21.992;2023-03-18T06:15:02;99615.94;;;0.81;75.09
65872;BME280;52653;50.080;21.992;2023-03-18T06:18:04;99607.84;;;1.00;74.46
65872;BME280;52653;50.080;21.992;2023-03-18T06:20:58;99609.36;;;1.18;73.76
65872;BME280;52653;50.080;21.992;2023-03-18T06:23:52;99606.56;;;1.37;73.14
65872;BME280;52653;50.080;21.992;2023-03-18T06:26:45;99608.79;;;1.55;72.67
65872;BME280;52653;50.080;21.992;2023-03-18T06:29:38;99607.02;;;1.74;72.13
65872;BME280;52653;50.080;21.992;2023-03-18T06:32:26;99609.69;;;1.93;71.72
65872;BME280;52653;50.080;21.992;2023-03-18T06:35:20;99607.95;;;2.13;71.44
65872;BME280;52653;50.080;21.992;2023-03-18T06:38:16;99603.95;;;2.35;71.08
65872;BME280;52653;50.080;21.992;2023-03-18T06:41:09;99608.23;;;2.56;70.06
65872;BME280;52653;50.080;21.992;2023-03-18T06:43:45;99605.23;;;2.77;68.14
65872;BME280;52653;50.080;21.992;2023-03-18T06:46:41;99603.27;;;3.04;66.86
65872;BME280;52653;50.080;21.992;2023-03-18T06:49:27;99607.30;;;3.31;65.61
65872;BME280;52653;50.080;21.992;2023-03-18T06:52:22;99602.10;;;3.56;64.52
65872;BME280;52653;50.080;21.992;2023-03-18T06:55:15;99603.52;;;3.78;64.01
65872;BME280;52653;50.080;21.992;2023-03-18T06:57:58;99602.65;;;3.98;63.70
65872;BME280;52653;50.080;21.992;2023-03-18T07:00:52;99601.38;;;4.24;62.65
65872;BME280;52653;50.080;21.992;2023-03-18T07:03:39;99597.21;;;4.46;60.96
65872;BME280;52653;50.080;21.992;2023-03-18T07:06:22;99591.78;;;4.67;61.00
65872;BME280;52653;50.080;21.992;2023-03-18T07:09:14;99589.98;;;4.89;57.79
65872;BME280;52653;50.080;21.992;2023-03-18T07:11:55;99597.83;;;5.07;55.14
65872;BME280;52653;50.080;21.992;2023-03-18T07:14:41;99593.29;;;5.22;55.32
65872;BME280;52653;50.080;21.992;2023-03-18T07:17:35;99592.73;;;5.40;54.71
65872;BME280;52653;50.080;21.992;2023-03-18T07:20:28;99591.14;;;5.55;54.05
65872;BME280;52653;50.080;21.992;2023-03-18T07:23:23;99590.94;;;5.73;53.31
65872;BME280;52653;50.080;21.992;2023-03-18T07:26:00;99587.19;;;5.87;52.22
65872;BME280;52653;50.080;21.992;2023-03-18T07:28:53;99587.95;;;6.01;51.44
65872;BME280;52653;50.080;21.992;2023-03-18T07:31:39;99591.46;;;6.12;51.60
65872;BME280;52653;50.080;21.992;2023-03-18T07:34:27;99594.80;;;6.25;50.63
65872;BME280;52653;50.080;21.992;2023-03-18T07:37:13;99596.23;;;6.39;50.41
65872;BME280;52653;50.080;21.992;2023-03-18T07:40:09;99597.30;;;6.52;49.34
65872;BME280;52653;50.080;21.992;2023-03-18T07:43:03;99599.91;;;6.64;48.79
65872;BME280;52653;50.080;21.992;2023-03-18T07:45:43;99594.85;;;6.75;48.41
65872;BME280;52653;50.080;21.992;2023-03-18T07:48:17;99595.69;;;6.86;47.94
65872;BME280;52653;50.080;21.992;2023-03-18T07:50:52;99599.20;;;7.01;49.14
65872;BME280;52653;50.080;21.992;2023-03-18T07:53:25;99599.18;;;7.13;48.97
65872;BME280;52653;50.080;21.992;2023-03-18T07:56:02;99597.95;;;7.26;48.29
65872;BME280;52653;50.080;21.992;2023-03-18T07:58:35;99601.57;;;7.40;48.46
65872;BME280;52653;50.080;21.992;2023-03-18T08:01:24;99599.27;;;7.50;47.14
65872;BME280;52653;50.080;21.992;2023-03-18T08:04:00;99598.80;;;7.56;47.19
65872;BME280;52653;50.080;21.992;2023-03-18T08:06:41;99604.33;;;7.67;47.35
65872;BME280;52653;50.080;21.992;2023-03-18T08:09:36;99601.31;;;7.80;46.14
65872;BME280;52653;50.080;21.992;2023-03-18T08:12:11;99602.45;;;7.88;45.87
65872;BME280;52653;50.080;21.992;2023-03-18T08:15:08;99601.15;;;8.00;45.91
65872;BME280;52653;50.080;21.992;2023-03-18T08:17:52;99598.80;;;8.12;44.25
65872;BME280;52653;50.080;21.992;2023-03-18T08:20:46;99597.13;;;8.21;44.40
65872;BME280;52653;50.080;21.992;2023-03-18T08:23:38;99598.85;;;8.36;45.17
65872;BME280;52653;50.080;21.992;2023-03-18T08:26:17;99594.73;;;8.48;43.82
65872;BME280;52653;50.080;21.992;2023-03-18T08:29:13;99595.55;;;8.61;43.87
65872;BME280;52653;50.080;21.992;2023-03-18T08:31:48;99595.08;;;8.71;41.91
65872;BME280;52653;50.080;21.992;2023-03-18T08:34:42;99604.38;;;8.77;40.52
65872;BME280;52653;50.080;21.992;2023-03-18T08:37:35;99602.14;;;8.85;40.79
65872;BME280;52653;50.080;21.992;2023-03-18T08:40:22;99606.23;;;8.97;41.09
65872;BME280;52653;50.080;21.992;2023-03-18T08:42:56;99602.27;;;9.08;40.98
65872;BME280;52653;50.080;21.992;2023-03-18T08:45:53;99598.45;;;9.19;41.27
65872;BME280;52653;50.080;21.992;2023-03-18T08:48:28;99595.18;;;9.31;40.71
65872;BME280;52653;50.080;21.992;2023-03-18T08:51:03;99594.34;;;9.44;40.35
65872;BME280;52653;50.080;21.992;2023-03-18T08:53:38;99592.11;;;9.54;39.73
65872;BME280;52653;50.080;21.992;2023-03-18T08:56:11;99591.23;;;9.62;39.11
65872;BME280;52653;50.080;21.992;2023-03-18T08:58:45;99591.96;;;9.70;39.28
65872;BME280;52653;50.080;21.992;2023-03-18T09:01:18;99589.02;;;9.81;39.07
65872;BME280;52653;50.080;21.992;2023-03-18T09:03:53;99582.00;;;9.89;39.37
65872;BME280;52653;50.080;21.992;2023-03-18T09:06:28;99587.80;;;10.01;40.14
65872;BME280;52653;50.080;21.992;2023-03-18T09:09:03;99586.92;;;10.14;39.64
65872;BME280;52653;50.080;21.992;2023-03-18T09:11:36;99586.09;;;10.27;39.10
65872;BME280;52653;50.080;21.992;2023-03-18T09:14:09;99583.45;;;10.35;39.28
65872;BME280;52653;50.080;21.992;2023-03-18T09:16:43;99580.98;;;10.45;38.95
65872;BME280;52653;50.080;21.992;2023-03-18T09:19:16;99577.46;;;10.54;37.76
65872;BME280;52653;50.080;21.992;2023-03-18T09:21:49;99572.20;;;10.57;36.89
65872;BME280;52653;50.080;21.992;2023-03-18T09:24:24;99578.34;;;10.57;37.21
65872;BME280;52653;50.080;21.992;2023-03-18T09:26:57;99577.62;;;10.62;36.83
65872;BME280;52653;50.080;21.992;2023-03-18T09:29:30;99578.14;;;10.68;36.85
65872;BME280;52653;50.080;21.992;2023-03-18T09:32:03;99577.94;;;10.79;36.79
65872;BME280;52653;50.080;21.992;2023-03-18T09:34:37;99574.41;;;10.86;35.05
65872;BME280;52653;50.080;21.992;2023-03-18T09:37:10;99569.13;;;10.92;35.18
65872;BME280;52653;50.080;21.992;2023-03-18T09:39:47;99570.33;;;10.98;35.08
65872;BME280;52653;50.080;21.992;2023-03-18T09:42:32;99568.37;;;11.06;35.39
65872;BME280;52653;50.080;21.992;2023-03-18T09:45:18;99567.27;;;11.15;35.05
65872;BME280;52653;50.080;21.992;2023-03-18T09:48:05;99572.71;;;11.15;34.18
65872;BME280;52653;50.080;21.992;2023-03-18T09:50:52;99572.00;;;11.17;33.71
65872;BME280;52653;50.080;21.992;2023-03-18T09:53:38;99572.52;;;11.22;33.66
65872;BME280;52653;50.080;21.992;2023-03-18T09:56:17;99571.08;;;11.29;33.80
65872;BME280;52653;50.080;21.992;2023-03-18T09:58:57;99573.16;;;11.34;34.02
65872;BME280;52653;50.080;21.992;2023-03-18T10:01:35;99569.61;;;11.42;34.17
65872;BME280;52653;50.080;21.992;2023-03-18T10:04:14;99558.67;;;11.48;33.39
65872;BME280;52653;50.080;21.992;2023-03-18T10:06:49;99555.48;;;11.57;33.85
65872;BME280;52653;50.080;21.992;2023-03-18T10:09:26;99559.80;;;11.66;33.40
65872;BME280;52653;50.080;21.992;2023-03-18T10:12:09;99561.14;;;11.76;33.05
65872;BME280;52653;50.080;21.992;2023-03-18T10:14:48;99558.65;;;11.86;33.20
65872;BME280;52653;50.080;21.992;2023-03-18T10:17:24;99560.17;;;11.96;32.88
65872;BME280;52653;50.080;21.992;2023-03-18T10:19:59;99559.56;;;12.04;32.83
65872;BME280;52653;50.080;21.992;2023-03-18T10:22:49;99558.80;;;12.13;32.12
65872;BME280;52653;50.080;21.992;2023-03-18T10:25:27;99557.70;;;12.15;31.99
65872;BME280;52653;50.080;21.992;2023-03-18T10:31:12;99546.23;;;12.22;32.69
65872;BME280;52653;50.080;21.992;2023-03-18T10:33:57;99547.06;;;12.26;32.39
65872;BME280;52653;50.080;21.992;2023-03-18T10:36:36;99541.22;;;12.31;32.31
65872;BME280;52653;50.080;21.992;2023-03-18T10:39:14;99543.30;;;12.35;32.28
65872;BME280;52653;50.080;21.992;2023-03-18T10:41:50;99536.40;;;12.37;32.59
65872;BME280;52653;50.080;21.992;2023-03-18T10:44:27;99531.25;;;12.42;32.40
65872;BME280;52653;50.080;21.992;2023-03-18T10:47:03;99532.62;;;12.48;32.61
65872;BME280;52653;50.080;21.992;2023-03-18T10:49:44;99533.42;;;12.54;31.61
65872;BME280;52653;50.080;21.992;2023-03-18T10:52:30;99532.70;;;12.55;31.50
65872;BME280;52653;50.080;21.992;2023-03-18T10:55:12;99528.45;;;12.58;31.49
65872;BME280;52653;50.080;21.992;2023-03-18T10:57:47;99531.40;;;12.63;31.81
65872;BME280;52653;50.080;21.992;2023-03-18T11:00:28;99530.98;;;12.68;31.97
65872;BME280;52653;50.080;21.992;2023-03-18T11:03:05;99528.98;;;12.74;31.43
65872;BME280;52653;50.080;21.992;2023-03-18T11:05:38;99524.70;;;12.78;30.99
65872;BME280;52653;50.080;21.992;2023-03-18T11:08:30;99515.70;;;12.80;30.89
65872;BME280;52653;50.080;21.992;2023-03-18T11:11:21;99514.77;;;12.85;31.46
65872;BME280;52653;50.080;21.992;2023-03-18T11:13:55;99516.08;;;12.93;31.17
65872;BME280;52653;50.080;21.992;2023-03-18T11:16:34;99515.81;;;13.01;31.51
65872;BME280;52653;50.080;21.992;2023-03-18T11:19:25;99514.00;;;13.04;31.26
65872;BME280;52653;50.080;21.992;2023-03-18T11:22:16;99515.31;;;13.12;31.19
65872;BME280;52653;50.080;21.992;2023-03-18T11:25:04;99506.38;;;13.23;31.48
65872;BME280;52653;50.080;21.992;2023-03-18T11:27:41;99499.21;;;13.33;31.50
65872;BME280;52653;50.080;21.992;2023-03-18T11:30:16;99494.16;;;13.41;30.80
65872;BME280;52653;50.080;21.992;2023-03-18T11:33:14;99496.69;;;13.49;30.92
65872;BME280;52653;50.080;21.992;2023-03-18T11:35:51;99494.63;;;13.45;30.11
65872;BME280;52653;50.080;21.992;2023-03-18T11:38:27;99489.84;;;13.47;30.93
65872;BME280;52653;50.080;21.992;2023-03-18T11:41:10;99493.42;;;13.54;30.92
65872;BME280;52653;50.080;21.992;2023-03-18T11:43:56;99488.03;;;13.62;30.68
65872;BME280;52653;50.080;21.992;2023-03-18T11:46:33;99485.61;;;13.70;30.79
65872;BME280;52653;50.080;21.992;2023-03-18T11:49:10;99484.13;;;13.75;30.21
65872;BME280;52653;50.080;21.992;2023-03-18T11:51:53;99480.10;;;13.83;30.49
65872;BME280;52653;50.080;21.992;2023-03-18T11:54:58;99476.05;;;13.94;29.97
65872;BME280;52653;50.080;21.992;2023-03-18T11:57:41;99469.59;;;14.01;29.24
65872;BME280;52653;50.080;21.992;2023-03-18T12:00:25;99472.13;;;14.06;29.31
65872;BME280;52653;50.080;21.992;2023-03-18T12:06:20;99474.27;;;14.15;29.37
65872;BME280;52653;50.080;21.992;2023-03-18T12:09:02;99468.65;;;14.13;28.69
65872;BME280;52653;50.080;21.992;2023-03-18T12:11:50;99464.66;;;14.09;28.91
65872;BME280;52653;50.080;21.992;2023-03-18T12:14:32;99461.32;;;14.08;29.37
65872;BME280;52653;50.080;21.992;2023-03-18T12:17:20;99459.02;;;14.10;29.14
65872;BME280;52653;50.080;21.992;2023-03-18T12:20:21;99468.02;;;14.19;29.37
65872;BME280;52653;50.080;21.992;2023-03-18T12:23:15;99460.71;;;14.24;29.02
65872;BME280;52653;50.080;21.992;2023-03-18T12:25:59;99455.75;;;14.25;29.05
65872;BME280;52653;50.080;21.992;2023-03-18T12:28:46;99461.80;;;14.31;28.94
65872;BME280;52653;50.080;21.992;2023-03-18T12:31:56;99459.55;;;14.38;28.10
65872;BME280;52653;50.080;21.992;2023-03-18T12:34:45;99456.77;;;14.46;28.13
65872;BME280;52653;50.080;21.992;2023-03-18T12:37:31;99452.21;;;14.54;28.38
65872;BME280;52653;50.080;21.992;2023-03-18T12:40:36;99456.02;;;14.66;28.50
65872;BME280;52653;50.080;21.992;2023-03-18T12:43:30;99453.80;;;14.71;27.92
65872;BME280;52653;50.080;21.992;2023-03-18T12:46:18;99449.70;;;14.74;27.94
65872;BME280;52653;50.080;21.992;2023-03-18T12:48:56;99442.39;;;14.68;26.96
65872;BME280;52653;50.080;21.992;2023-03-18T12:51:35;99444.26;;;14.64;27.83
65872;BME280;52653;50.080;21.992;2023-03-18T12:54:19;99443.39;;;14.63;27.12
65872;BME280;52653;50.080;21.992;2023-03-18T12:56:59;99443.95;;;14.60;27.72
65872;BME280;52653;50.080;21.992;2023-03-18T12:59:37;99441.95;;;14.63;28.30
65872;BME280;52653;50.080;21.992;2023-03-18T13:02:37;99436.34;;;14.61;27.33
65872;BME280;52653;50.080;21.992;2023-03-18T13:05:15;99431.42;;;14.61;27.90
65872;BME280;52653;50.080;21.992;2023-03-18T13:10:56;99434.43;;;14.68;27.51
65872;BME280;52653;50.080;21.992;2023-03-18T13:13:33;99440.88;;;14.73;27.73
65872;BME280;52653;50.080;21.992;2023-03-18T13:16:08;99435.36;;;14.76;27.13
65872;BME280;52653;50.080;21.992;2023-03-18T13:18:47;99429.30;;;14.68;26.57
65872;BME280;52653;50.080;21.992;2023-03-18T13:21:23;99436.35;;;14.61;26.94
65872;BME280;52653;50.080;21.992;2023-03-18T13:24:33;99433.61;;;14.57;27.08
65872;BME280;52653;50.080;21.992;2023-03-18T13:30:21;99428.44;;;14.59;27.89
65872;BME280;52653;50.080;21.992;2023-03-18T13:33:13;99424.88;;;14.62;27.96
65872;BME280;52653;50.080;21.992;2023-03-18T13:39:10;99421.27;;;14.73;27.44
65872;BME280;52653;50.080;21.992;2023-03-18T13:42:11;99420.02;;;14.73;27.23
65872;BME280;52653;50.080;21.992;2023-03-18T13:44:53;99421.62;;;14.72;27.02
65872;BME280;52653;50.080;21.992;2023-03-18T13:47:32;99417.04;;;14.72;27.42
65872;BME280;52653;50.080;21.992;2023-03-18T13:50:28;99418.62;;;14.73;27.08
65872;BME280;52653;50.080;21.992;2023-03-18T13:53:03;99418.17;;;14.69;27.16
65872;BME280;52653;50.080;21.992;2023-03-18T13:55:44;99421.52;;;14.61;26.19
65872;BME280;52653;50.080;21.992;2023-03-18T13:58:26;99416.23;;;14.53;26.76
65872;BME280;52653;50.080;21.992;2023-03-18T14:01:27;99410.63;;;14.51;27.51
65872;BME280;52653;50.080;21.992;2023-03-18T14:04:25;99408.38;;;14.48;27.33
65872;BME280;52653;50.080;21.992;2023-03-18T14:07:14;99404.61;;;14.41;26.84
65872;BME280;52653;50.080;21.992;2023-03-18T14:09:53;99404.19;;;14.35;25.97
65872;BME280;52653;50.080;21.992;2023-03-18T14:12:46;99397.62;;;14.29;26.12
65872;BME280;52653;50.080;21.992;2023-03-18T14:15:40;99399.34;;;14.22;26.67
65872;BME280;52653;50.080;21.992;2023-03-18T14:18:23;99396.27;;;14.17;27.06
65872;BME280;52653;50.080;21.992;2023-03-18T14:21:02;99391.87;;;14.16;27.00
65872;BME280;52653;50.080;21.992;2023-03-18T14:23:43;99391.31;;;14.17;27.20
65872;BME280;52653;50.080;21.992;2023-03-18T14:26:22;99389.30;;;14.12;27.25